Time;durP1;ratioP1;P1;durP2;ratioP2;P2;SDS_P1;SDS_P2;PMS_P1;PMS_P2;Temp;Humidity;BMP_temperature;BMP_pressure;BME280_temperature;BME280_humidity;BME280_pressure;Samples;Min_cycle;Max_cycle;Signal;HPM_P1;HPM_P2
2023/04/19 00:01:19;;;;;;;5.15;4.95;;;;;;;;;;4208319;28;20057;-82
2023/04/19 00:03:39;;;;;;;5.13;4.93;;;;;;;;;;4199934;28;20044;-83
2023/04/19 00:06:01;;;;;;;4.43;4.32;;;;;;;;;;4216196;28;20286;-82
2023/04/19 00:08:21;;;;;;;3.75;3.63;;;;;;;;;;4200352;28;20082;-82
2023/04/19 00:10:41;;;;;;;4.00;3.90;;;;;;;;;;4200139;28;20063;-82
2023/04/19 00:13:02;;;;;;;5.07;4.97;;;;;;;;;;4216368;28;20059;-82
2023/04/19 00:15:22;;;;;;;4.40;4.30;;;;;;;;;;4212228;28;20082;-82
2023/04/19 00:17:42;;;;;;;4.32;4.22;;;;;;;;;;4214393;28;20052;-82
2023/04/19 00:20:02;;;;;;;2.97;2.97;;;;;;;;;;4210572;28;20247;-82
2023/04/19 00:22:23;;;;;;;3.65;3.65;;;;;;;;;;4205658;28;20055;-82
2023/04/19 00:24:43;;;;;;;3.08;3.08;;;;;;;;;;4197198;28;20459;-82
2023/04/19 00:27:03;;;;;;;2.83;2.72;;;;;;;;;;4211377;28;20047;-82
2023/04/19 00:29:23;;;;;;;2.80;2.80;;;;;;;;;;4199835;28;20052;-82
2023/04/19 00:31:43;;;;;;;3.20;3.20;;;;;;;;;;4217336;28;20126;-83
2023/04/19 00:34:05;;;;;;;3.30;3.20;;;;;;;;;;4198750;28;20453;-83
2023/04/19 00:36:26;;;;;;;3.58;3.58;;;;;;;;;;4205698;28;20381;-82
2023/04/19 00:38:46;;;;;;;3.45;3.40;;;;;;;;;;4219419;28;20058;-82
2023/04/19 00:41:06;;;;;;;3.10;3.00;;;;;;;;;;4202774;28;20086;-83
2023/04/19 00:43:26;;;;;;;3.53;3.35;;;;;;;;;;4210968;28;20059;-83
2023/04/19 00:45:47;;;;;;;3.40;3.20;;;;;;;;;;4198158;28;20051;-83
2023/04/19 00:48:08;;;;;;;3.58;3.58;;;;;;;;;;4208807;28;20082;-82
2023/04/19 00:50:28;;;;;;;3.13;3.03;;;;;;;;;;4210409;28;20089;-82
2023/04/19 00:52:49;;;;;;;3.17;3.08;;;;;;;;;;4211248;28;20094;-82
2023/04/19 00:55:09;;;;;;;3.38;3.28;;;;;;;;;;4194688;28;20087;-82
2023/04/19 00:57:30;;;;;;;3.22;3.13;;;;;;;;;;4208986;28;20051;-82
2023/04/19 00:59:51;;;;;;;3.80;3.70;;;;;;;;;;4213898;28;20048;-82
2023/04/19 01:02:12;;;;;;;4.18;3.97;;;;;;;;;;4226397;22;20047;-68
2023/04/19 01:04:32;;;;;;;3.92;3.83;;;;;;;;;;4206855;28;20107;-68
2023/04/19 01:06:53;;;;;;;3.63;3.42;;;;;;;;;;4206281;28;20231;-68
2023/04/19 01:09:13;;;;;;;3.15;3.15;;;;;;;;;;4210358;28;20074;-68
2023/04/19 01:11:34;;;;;;;5.50;5.20;;;;;;;;;;4212797;28;20050;-68
2023/04/19 01:13:55;;;;;;;4.13;4.00;;;;;;;;;;4204518;28;20094;-68
2023/04/19 01:16:15;;;;;;;3.70;3.70;;;;;;;;;;4210148;28;20043;-68
2023/04/19 01:18:38;;;;;;;4.55;4.45;;;;;;;;;;4209907;28;20294;-68
2023/04/19 01:20:58;;;;;;;5.18;5.00;;;;;;;;;;4208537;28;20048;-68
2023/04/19 01:23:19;;;;;;;5.35;5.15;;;;;;;;;;4202291;28;20047;-68
2023/04/19 01:25:39;;;;;;;3.72;3.63;;;;;;;;;;4210552;28;20051;-69
2023/04/19 01:27:59;;;;;;;4.85;4.65;;;;;;;;;;4211724;28;20396;-68
2023/04/19 01:30:20;;;;;;;4.82;4.72;;;;;;;;;;4203047;28;20393;-68
2023/04/19 01:32:40;;;;;;;3.97;3.72;;;;;;;;;;4204596;28;20079;-69
2023/04/19 01:35:00;;;;;;;5.65;4.50;;;;;;;;;;4202655;28;20047;-68
2023/04/19 01:37:21;;;;;;;4.05;3.95;;;;;;;;;;4204039;28;20042;-68
2023/04/19 01:39:41;;;;;;;3.72;3.65;;;;;;;;;;4196863;28;20062;-68
2023/04/19 01:42:01;;;;;;;3.42;3.33;;;;;;;;;;4219265;28;20058;-68
2023/04/19 01:44:22;;;;;;;3.45;3.45;;;;;;;;;;4222144;28;20234;-68
2023/04/19 01:46:42;;;;;;;3.47;3.47;;;;;;;;;;4215412;28;20054;-68
2023/04/19 01:49:03;;;;;;;2.47;2.47;;;;;;;;;;4214281;28;20070;-68
2023/04/19 01:51:23;;;;;;;3.72;3.72;;;;;;;;;;4204784;28;20067;-68
2023/04/19 01:53:43;;;;;;;3.63;3.63;;;;;;;;;;4223075;28;20082;-68
2023/04/19 01:56:03;;;;;;;3.47;3.28;;;;;;;;;;4217108;28;20081;-68
2023/04/19 01:58:23;;;;;;;3.22;3.22;;;;;;;;;;4220142;28;20078;-68
2023/04/19 02:00:45;;;;;;;3.67;3.65;;;;;;;;;;4221284;28;20047;-68
2023/04/19 02:03:05;;;;;;;3.95;3.85;;;;;;;;;;4228442;28;20047;-68
2023/04/19 02:05:25;;;;;;;3.25;3.15;;;;;;;;;;4225084;28;20150;-68
2023/04/19 02:07:45;;;;;;;3.83;3.83;;;;;;;;;;4222751;28;20298;-68
2023/04/19 02:10:06;;;;;;;3.20;3.20;;;;;;;;;;4231793;28;20051;-68
2023/04/19 02:12:30;;;;;;;3.17;3.08;;;;;;;;;;4225516;28;20049;-68
2023/04/19 02:14:50;;;;;;;2.88;2.88;;;;;;;;;;4224997;28;20404;-69
2023/04/19 02:17:11;;;;;;;3.15;3.15;;;;;;;;;;4223505;28;20043;-68
2023/04/19 02:19:31;;;;;;;3.15;3.03;;;;;;;;;;4229072;28;20113;-68
2023/04/19 02:21:52;;;;;;;3.28;3.28;;;;;;;;;;4223517;28;20057;-69
2023/04/19 02:24:13;;;;;;;3.85;3.75;;;;;;;;;;4223882;28;20373;-69
2023/04/19 02:26:33;;;;;;;4.25;4.25;;;;;;;;;;4224361;28;20047;-69
2023/04/19 02:28:54;;;;;;;3.58;3.50;;;;;;;;;;4225850;28;20047;-69
2023/04/19 02:31:14;;;;;;;3.72;2.90;;;;;;;;;;4223543;28;20074;-69
2023/04/19 02:33:35;;;;;;;3.55;3.35;;;;;;;;;;4222060;28;20072;-69
2023/04/19 02:35:55;;;;;;;3.30;3.13;;;;;;;;;;4227724;28;20078;-68
2023/04/19 02:38:16;;;;;;;3.10;3.10;;;;;;;;;;4219280;28;20153;-69
2023/04/19 02:40:36;;;;;;;3.58;3.47;;;;;;;;;;4216815;28;20047;-69
2023/04/19 02:42:56;;;;;;;3.90;3.83;;;;;;;;;;4223292;28;20392;-69
2023/04/19 02:45:16;;;;;;;3.38;3.28;;;;;;;;;;4226833;28;20035;-68
2023/04/19 02:47:37;;;;;;;4.30;3.95;;;;;;;;;;4224906;28;20081;-69
2023/04/19 02:49:57;;;;;;;3.60;3.60;;;;;;;;;;4218008;28;20178;-68
2023/04/19 02:52:17;;;;;;;3.08;3.08;;;;;;;;;;4223142;28;20381;-69
2023/04/19 02:54:37;;;;;;;2.88;2.88;;;;;;;;;;4227305;28;20085;-70
2023/04/19 02:56:58;;;;;;;2.95;2.95;;;;;;;;;;4227718;28;20234;-70
2023/04/19 02:59:18;;;;;;;4.53;4.43;;;;;;;;;;4222353;28;20361;-69
2023/04/19 03:01:38;;;;;;;3.80;3.70;;;;;;;;;;4224324;28;20043;-69
2023/04/19 03:03:58;;;;;;;3.72;3.63;;;;;;;;;;4228399;28;20050;-69
2023/04/19 03:06:18;;;;;;;2.95;2.95;;;;;;;;;;4231481;28;20093;-69
2023/04/19 03:08:38;;;;;;;4.90;4.35;;;;;;;;;;4225324;28;20047;-69
2023/04/19 03:10:58;;;;;;;3.35;3.35;;;;;;;;;;4228673;28;20065;-69
2023/04/19 03:13:18;;;;;;;3.45;3.45;;;;;;;;;;4208434;28;20087;-69
2023/04/19 03:15:39;;;;;;;3.72;3.72;;;;;;;;;;4219889;28;20063;-69
2023/04/19 03:17:59;;;;;;;2.55;2.55;;;;;;;;;;4230611;28;20084;-69
2023/04/19 03:20:19;;;;;;;4.18;4.07;;;;;;;;;;4229383;28;20047;-70
2023/04/19 03:22:40;;;;;;;3.30;3.20;;;;;;;;;;4226882;28;20370;-70
2023/04/19 03:25:00;;;;;;;4.28;4.20;;;;;;;;;;4222687;28;20059;-70
2023/04/19 03:27:20;;;;;;;3.58;3.58;;;;;;;;;;4230787;28;20081;-70
2023/04/19 03:29:40;;;;;;;4.60;4.43;;;;;;;;;;4231210;28;20150;-70
2023/04/19 03:32:00;;;;;;;4.05;4.05;;;;;;;;;;4231568;28;20276;-70
2023/04/19 03:34:21;;;;;;;4.32;4.28;;;;;;;;;;4225753;28;20083;-70
2023/04/19 03:36:41;;;;;;;3.60;3.50;;;;;;;;;;4222307;28;20373;-70
2023/04/19 03:39:02;;;;;;;3.40;3.40;;;;;;;;;;4224754;28;20066;-70
2023/04/19 03:41:24;;;;;;;3.15;3.15;;;;;;;;;;4224874;28;20055;-70
2023/04/19 03:43:45;;;;;;;3.80;3.70;;;;;;;;;;4227229;28;20050;-70
2023/04/19 03:46:05;;;;;;;3.53;3.47;;;;;;;;;;4212518;28;20114;-70
2023/04/19 03:48:26;;;;;;;3.40;3.40;;;;;;;;;;4227040;28;20043;-70
2023/04/19 03:50:47;;;;;;;3.90;3.90;;;;;;;;;;4206355;28;20050;-70
2023/04/19 03:53:07;;;;;;;2.88;2.88;;;;;;;;;;4227477;28;20105;-70
2023/04/19 03:55:27;;;;;;;3.08;3.08;;;;;;;;;;4226775;28;20051;-70
2023/04/19 03:57:47;;;;;;;2.95;2.95;;;;;;;;;;4223941;28;20044;-70
2023/04/19 04:00:08;;;;;;;3.47;3.47;;;;;;;;;;4213385;28;20329;-70
2023/04/19 04:02:28;;;;;;;3.85;3.75;;;;;;;;;;4224306;28;20454;-70
2023/04/19 04:04:55;;;;;;;4.60;4.40;;;;;;;;;;4220922;28;20266;-70
2023/04/19 04:07:15;;;;;;;4.63;4.32;;;;;;;;;;4227236;28;20093;-70
2023/04/19 04:09:35;;;;;;;3.13;2.97;;;;;;;;;;4225641;28;20370;-70
2023/04/19 04:11:55;;;;;;;4.00;4.00;;;;;;;;;;4227362;28;20368;-70
2023/04/19 04:14:15;;;;;;;4.00;3.90;;;;;;;;;;4220617;28;20374;-70
2023/04/19 04:16:36;;;;;;;4.72;4.57;;;;;;;;;;4225667;28;20043;-70
2023/04/19 04:18:56;;;;;;;4.40;4.15;;;;;;;;;;4230111;28;20046;-70
2023/04/19 04:21:16;;;;;;;4.22;3.97;;;;;;;;;;4228004;28;20067;-70
2023/04/19 04:23:37;;;;;;;4.68;4.68;;;;;;;;;;4223193;28;20051;-70
2023/04/19 04:25:59;;;;;;;5.32;5.22;;;;;;;;;;4227324;28;20306;-70
2023/04/19 04:28:20;;;;;;;4.65;4.53;;;;;;;;;;4231632;28;20050;-70
2023/04/19 04:30:41;;;;;;;4.65;4.45;;;;;;;;;;4229079;28;20085;-70
2023/04/19 04:33:01;;;;;;;3.83;3.72;;;;;;;;;;4226342;28;20043;-70
2023/04/19 04:35:21;;;;;;;3.28;3.28;;;;;;;;;;4228485;28;20053;-70
2023/04/19 04:37:41;;;;;;;4.57;4.47;;;;;;;;;;4224659;28;20049;-71
2023/04/19 04:40:04;;;;;;;4.43;4.43;;;;;;;;;;4196378;28;20052;-70
2023/04/19 04:42:24;;;;;;;3.95;3.95;;;;;;;;;;4227603;28;20063;-70
2023/04/19 04:44:46;;;;;;;4.10;4.10;;;;;;;;;;4229106;28;20358;-70
2023/04/19 04:47:06;;;;;;;3.80;3.80;;;;;;;;;;4220110;28;20070;-70
2023/04/19 04:49:26;;;;;;;4.55;4.45;;;;;;;;;;4219221;28;20051;-71
2023/04/19 04:51:47;;;;;;;4.78;4.68;;;;;;;;;;4199079;28;20079;-70
2023/04/19 04:54:07;;;;;;;4.13;4.13;;;;;;;;;;4224510;28;20051;-71
2023/04/19 04:56:27;;;;;;;4.07;4.07;;;;;;;;;;4216469;28;20084;-71
2023/04/19 04:58:47;;;;;;;4.95;4.88;;;;;;;;;;4225979;28;20043;-72
2023/04/19 05:01:07;;;;;;;4.13;4.10;;;;;;;;;;4221216;28;20142;-71
2023/04/19 05:03:27;;;;;;;5.05;4.82;;;;;;;;;;4228172;28;20055;-71
2023/04/19 05:05:48;;;;;;;4.50;4.40;;;;;;;;;;4232514;28;20365;-70
2023/04/19 05:08:08;;;;;;;4.95;4.85;;;;;;;;;;4215711;28;20046;-71
2023/04/19 05:10:28;;;;;;;4.80;4.70;;;;;;;;;;4227241;28;20057;-71
2023/04/19 05:12:49;;;;;;;4.50;4.20;;;;;;;;;;4229111;28;20054;-71
2023/04/19 05:15:10;;;;;;;6.30;5.97;;;;;;;;;;4225675;28;20116;-71
2023/04/19 05:17:31;;;;;;;6.57;6.37;;;;;;;;;;4222154;28;20062;-72
2023/04/19 05:19:51;;;;;;;6.47;6.25;;;;;;;;;;4231752;28;20242;-72
2023/04/19 05:22:11;;;;;;;5.85;5.65;;;;;;;;;;4228662;28;20146;-72
2023/04/19 05:24:31;;;;;;;6.43;6.13;;;;;;;;;;4224189;28;20051;-71
2023/04/19 05:26:51;;;;;;;6.80;6.55;;;;;;;;;;4223062;28;20047;-71
2023/04/19 05:29:12;;;;;;;7.68;7.28;;;;;;;;;;4229101;28;20050;-71
2023/04/19 05:31:32;;;;;;;8.32;7.63;;;;;;;;;;4227767;28;20412;-72
2023/04/19 05:33:52;;;;;;;8.40;7.72;;;;;;;;;;4206899;28;20114;-72
2023/04/19 05:36:12;;;;;;;7.03;6.60;;;;;;;;;;4222207;28;20146;-71
2023/04/19 05:38:32;;;;;;;5.40;5.30;;;;;;;;;;4224479;28;20082;-72
2023/04/19 05:40:52;;;;;;;6.57;6.38;;;;;;;;;;4220042;28;20071;-72
2023/04/19 05:43:13;;;;;;;11.27;10.70;;;;;;;;;;4219585;28;20115;-72
2023/04/19 05:45:33;;;;;;;8.88;8.23;;;;;;;;;;4223413;28;20039;-71
2023/04/19 05:47:53;;;;;;;9.32;9.13;;;;;;;;;;4223714;28;20082;-72
2023/04/19 05:50:16;;;;;;;7.93;7.72;;;;;;;;;;4217046;28;20060;-71
2023/04/19 05:52:37;;;;;;;7.88;7.68;;;;;;;;;;4218458;28;20046;-72
2023/04/19 05:54:58;;;;;;;7.55;7.32;;;;;;;;;;4225092;28;20039;-71
2023/04/19 05:57:18;;;;;;;6.25;6.15;;;;;;;;;;4221209;28;20051;-71
2023/04/19 05:59:39;;;;;;;6.00;5.80;;;;;;;;;;4219075;28;20047;-72
2023/04/19 06:02:00;;;;;;;5.65;5.55;;;;;;;;;;4202651;28;20120;-72
2023/04/19 06:04:20;;;;;;;4.82;4.80;;;;;;;;;;4226984;28;20056;-72
2023/04/19 06:06:41;;;;;;;4.45;4.20;;;;;;;;;;4220326;28;20079;-72
2023/04/19 06:09:02;;;;;;;4.13;4.03;;;;;;;;;;4220623;28;20050;-72
2023/04/19 06:11:22;;;;;;;3.75;3.75;;;;;;;;;;4222391;28;20104;-72
2023/04/19 06:13:51;;;;;;;4.03;3.97;;;;;;;;;;4224741;28;20055;-72
2023/04/19 06:16:11;;;;;;;4.85;4.50;;;;;;;;;;4222841;28;20059;-71
2023/04/19 06:18:31;;;;;;;5.10;4.97;;;;;;;;;;4223089;28;20089;-71
2023/04/19 06:20:52;;;;;;;5.00;4.55;;;;;;;;;;4212013;28;20094;-72
2023/04/19 06:23:13;;;;;;;4.72;4.43;;;;;;;;;;4210119;28;20043;-72
2023/04/19 06:25:33;;;;;;;6.30;6.20;;;;;;;;;;4225373;28;20082;-72
2023/04/19 06:27:54;;;;;;;4.28;4.03;;;;;;;;;;4227227;28;20188;-72
2023/04/19 06:30:14;;;;;;;4.20;3.90;;;;;;;;;;4225607;28;20104;-71
2023/04/19 06:32:34;;;;;;;4.05;3.95;;;;;;;;;;4222325;28;20096;-71
2023/04/19 06:34:54;;;;;;;4.60;4.40;;;;;;;;;;4224548;28;20084;-71
2023/04/19 06:37:15;;;;;;;4.85;4.65;;;;;;;;;;4227083;28;20279;-71
2023/04/19 06:39:35;;;;;;;4.15;4.00;;;;;;;;;;4220306;28;20059;-71
2023/04/19 06:41:55;;;;;;;4.10;4.00;;;;;;;;;;4222025;28;20051;-71
2023/04/19 06:44:15;;;;;;;4.00;3.90;;;;;;;;;;4227394;28;20055;-72
2023/04/19 06:46:36;;;;;;;3.88;3.78;;;;;;;;;;4210223;28;20121;-72
2023/04/19 06:48:56;;;;;;;4.47;4.35;;;;;;;;;;4227536;28;20096;-72
2023/04/19 06:51:16;;;;;;;5.95;5.75;;;;;;;;;;4224519;28;20044;-72
2023/04/19 06:53:37;;;;;;;4.40;4.22;;;;;;;;;;4226468;28;20246;-72
2023/04/19 06:56:01;;;;;;;4.10;4.00;;;;;;;;;;4225975;28;20094;-72
2023/04/19 06:58:21;;;;;;;3.88;3.78;;;;;;;;;;4233942;28;20078;-72
2023/04/19 07:00:41;;;;;;;4.45;4.35;;;;;;;;;;4226390;28;20082;-72
2023/04/19 07:03:02;;;;;;;2.70;2.67;;;;;;;;;;4226440;28;20046;-72
2023/04/19 07:05:22;;;;;;;2.67;2.67;;;;;;;;;;4227663;28;20239;-72
2023/04/19 07:07:42;;;;;;;2.78;2.67;;;;;;;;;;4234922;28;20054;-72
2023/04/19 07:10:03;;;;;;;3.42;3.42;;;;;;;;;;4229180;28;20101;-72
2023/04/19 07:12:22;;;;;;;3.08;3.03;;;;;;;;;;4224933;28;20047;-71
2023/04/19 07:14:43;;;;;;;2.92;2.92;;;;;;;;;;4215227;28;20107;-71
2023/04/19 07:17:06;;;;;;;2.58;2.58;;;;;;;;;;4213744;28;20051;-71
2023/04/19 07:19:27;;;;;;;2.92;2.83;;;;;;;;;;4224507;28;20051;-72
2023/04/19 07:21:48;;;;;;;2.85;2.85;;;;;;;;;;4235060;28;20099;-71
2023/04/19 07:24:08;;;;;;;2.53;2.53;;;;;;;;;;4227601;28;20044;-72
2023/04/19 07:26:28;;;;;;;2.20;2.20;;;;;;;;;;4229793;28;20081;-72
2023/04/19 07:28:49;;;;;;;2.95;2.85;;;;;;;;;;4223359;28;20100;-73
2023/04/19 07:31:15;;;;;;;2.40;2.40;;;;;;;;;;4235175;28;20047;-72
2023/04/19 07:33:35;;;;;;;1.85;1.65;;;;;;;;;;4227663;28;20043;-73
2023/04/19 07:35:56;;;;;;;1.40;1.40;;;;;;;;;;4225101;28;20070;-73
2023/04/19 07:38:16;;;;;;;2.40;1.90;;;;;;;;;;4223354;28;20116;-73
2023/04/19 07:40:36;;;;;;;1.60;1.60;;;;;;;;;;4220784;28;20408;-73
2023/04/19 07:42:56;;;;;;;1.65;1.65;;;;;;;;;;4223076;28;20089;-73
2023/04/19 07:45:17;;;;;;;2.30;2.30;;;;;;;;;;4227387;28;20039;-74
2023/04/19 07:47:37;;;;;;;1.98;1.98;;;;;;;;;;4227613;28;20042;-74
2023/04/19 07:49:57;;;;;;;2.55;2.45;;;;;;;;;;4228035;28;20047;-74
2023/04/19 07:52:18;;;;;;;3.00;1.63;;;;;;;;;;4229064;28;20332;-74
2023/04/19 07:54:38;;;;;;;2.15;2.05;;;;;;;;;;4228629;28;20085;-73
2023/04/19 07:56:58;;;;;;;1.80;1.80;;;;;;;;;;4201167;28;20052;-74
2023/04/19 07:59:18;;;;;;;2.38;2.38;;;;;;;;;;4214513;28;20086;-74
2023/04/19 08:01:39;;;;;;;1.88;1.88;;;;;;;;;;4223248;28;20164;-75
2023/04/19 08:03:59;;;;;;;2.50;2.42;;;;;;;;;;4221401;28;20043;-75
2023/04/19 08:06:23;;;;;;;2.70;2.60;;;;;;;;;;4222892;28;20047;-75
2023/04/19 08:08:43;;;;;;;2.10;2.10;;;;;;;;;;4226044;28;20046;-76
2023/04/19 08:11:05;;;;;;;2.03;1.92;;;;;;;;;;4221934;28;20072;-76
2023/04/19 08:13:25;;;;;;;1.17;1.17;;;;;;;;;;4225386;28;20248;-76
2023/04/19 08:15:45;;;;;;;1.30;1.30;;;;;;;;;;4224330;28;20081;-76
2023/04/19 08:18:08;;;;;;;1.30;1.30;;;;;;;;;;4226473;28;20081;-76
2023/04/19 08:20:29;;;;;;;1.17;1.17;;;;;;;;;;4225331;28;20143;-76
2023/04/19 08:22:49;;;;;;;1.40;1.40;;;;;;;;;;4234013;28;20108;-76
2023/04/19 08:25:12;;;;;;;1.20;1.20;;;;;;;;;;4225810;28;20059;-77
2023/04/19 08:27:33;;;;;;;1.45;1.45;;;;;;;;;;4213390;28;20047;-77
2023/04/19 08:29:53;;;;;;;1.33;1.33;;;;;;;;;;4226685;28;20046;-76
2023/04/19 08:32:13;;;;;;;1.30;1.30;;;;;;;;;;4235612;28;20057;-76
2023/04/19 08:34:38;;;;;;;1.20;1.20;;;;;;;;;;4219921;28;20051;-76
2023/04/19 08:37:01;;;;;;;2.45;1.20;;;;;;;;;;4222958;28;20034;-77
2023/04/19 08:39:24;;;;;;;1.20;1.20;;;;;;;;;;4226728;28;20078;-77
2023/04/19 08:41:56;;;;;;;1.30;1.30;;;;;;;;;;4223714;28;20047;-77
2023/04/19 08:44:31;;;;;;;1.23;1.10;;;;;;;;;;4218429;28;20047;-77
2023/04/19 08:46:58;;;;;;;1.40;1.40;;;;;;;;;;4217162;28;20055;-76
2023/04/19 08:49:19;;;;;;;1.30;1.30;;;;;;;;;;4221713;28;20043;-77
2023/04/19 08:51:40;;;;;;;1.67;1.25;;;;;;;;;;4222772;28;20289;-76
2023/04/19 08:54:01;;;;;;;1.30;1.30;;;;;;;;;;4216510;28;20071;-77
2023/04/19 08:56:22;;;;;;;1.35;1.27;;;;;;;;;;4211168;28;20097;-78
2023/04/19 08:58:55;;;;;;;1.40;1.40;;;;;;;;;;4224450;28;20051;-77
2023/04/19 09:01:35;;;;;;;1.90;1.10;;;;;;;;;;4218988;28;20369;-77
2023/04/19 09:03:56;;;;;;;1.20;1.20;;;;;;;;;;4218722;28;20058;-77
2023/04/19 09:06:37;;;;;;;1.50;1.50;;;;;;;;;;4220266;28;20035;-79
2023/04/19 09:09:18;;;;;;;1.30;1.30;;;;;;;;;;4204955;28;20274;-79
2023/04/19 09:11:58;;;;;;;1.20;1.20;;;;;;;;;;4210022;28;20051;-78
2023/04/19 09:14:20;;;;;;;1.02;1.02;;;;;;;;;;4214756;28;20047;-77
2023/04/19 09:16:40;;;;;;;1.35;1.35;;;;;;;;;;4218055;28;20074;-77
2023/04/19 09:19:01;;;;;;;1.10;1.10;;;;;;;;;;4222994;28;20107;-77
2023/04/19 09:21:42;;;;;;;1.13;1.13;;;;;;;;;;4225066;28;20078;-77
2023/04/19 09:24:02;;;;;;;1.10;1.10;;;;;;;;;;4233948;28;20404;-76
2023/04/19 09:26:28;;;;;;;1.10;1.10;;;;;;;;;;4226495;28;20047;-76
2023/04/19 09:28:58;;;;;;;2.65;1.30;;;;;;;;;;4226320;28;20082;-76
2023/04/19 09:31:19;;;;;;;1.10;1.10;;;;;;;;;;4228749;28;20116;-76
2023/04/19 09:33:44;;;;;;;1.10;1.10;;;;;;;;;;4225978;28;20055;-75
2023/04/19 09:36:05;;;;;;;1.10;1.10;;;;;;;;;;4220627;28;20047;-75
2023/04/19 09:38:26;;;;;;;1.20;1.20;;;;;;;;;;4226168;28;20054;-75
2023/04/19 09:40:46;;;;;;;1.10;1.10;;;;;;;;;;4226099;28;20358;-75
2023/04/19 09:43:07;;;;;;;1.17;1.17;;;;;;;;;;4218652;28;20276;-75
2023/04/19 09:45:47;;;;;;;1.00;1.00;;;;;;;;;;4223318;28;20051;-76
2023/04/19 09:48:07;;;;;;;1.20;1.20;;;;;;;;;;4226263;28;20747;-75
2023/04/19 09:50:28;;;;;;;1.00;1.00;;;;;;;;;;4218412;28;20047;-75
2023/04/19 09:52:52;;;;;;;1.10;1.10;;;;;;;;;;4220935;28;20056;-76
2023/04/19 09:55:12;;;;;;;1.00;1.00;;;;;;;;;;4222245;28;20062;-76
2023/04/19 09:57:46;;;;;;;1.02;1.02;;;;;;;;;;4228170;28;20104;-76
2023/04/19 10:00:08;;;;;;;0.90;0.90;;;;;;;;;;4219862;28;20513;-76
2023/04/19 10:02:32;;;;;;;1.23;1.23;;;;;;;;;;4221209;28;20051;-75
2023/04/19 10:04:53;;;;;;;0.90;0.90;;;;;;;;;;4223068;28;20105;-76
2023/04/19 10:07:35;;;;;;;4.10;1.10;;;;;;;;;;4220879;28;20085;-76
2023/04/19 10:09:57;;;;;;;1.25;1.17;;;;;;;;;;4222794;28;20092;-77
2023/04/19 10:12:32;;;;;;;1.00;1.00;;;;;;;;;;4208437;28;20077;-77
2023/04/19 10:15:13;;;;;;;1.05;1.05;;;;;;;;;;4224937;28;20159;-80
2023/04/19 10:17:33;;;;;;;1.00;1.00;;;;;;;;;;4226655;28;20126;-79
2023/04/19 10:19:59;;;;;;;1.35;1.00;;;;;;;;;;4227071;28;20086;-78
2023/04/19 10:22:19;;;;;;;0.90;0.90;;;;;;;;;;4227975;28;20361;-79
2023/04/19 10:24:40;;;;;;;1.00;1.00;;;;;;;;;;4231285;28;20127;-77
2023/04/19 10:27:02;;;;;;;;;;;;;;;;;;4227317;28;20086;-74
2023/04/19 10:29:42;;;;;;;0.80;0.80;;;;;;;;;;4222791;28;20018;-78
2023/04/19 10:32:06;;;;;;;0.80;0.80;;;;;;;;;;4218543;28;20059;-78
2023/04/19 10:34:41;;;;;;;0.90;0.90;;;;;;;;;;4216753;28;20090;-78
2023/04/19 10:37:02;;;;;;;0.88;0.88;;;;;;;;;;4229706;28;20419;-77
2023/04/19 10:39:41;;;;;;;1.60;0.90;;;;;;;;;;4236079;28;20078;-79
2023/04/19 10:42:02;;;;;;;0.80;0.80;;;;;;;;;;4220980;28;20085;-78
2023/04/19 10:44:22;;;;;;;0.80;0.80;;;;;;;;;;4226698;28;20081;-77
2023/04/19 10:46:42;;;;;;;2.05;0.90;;;;;;;;;;4230406;28;20074;-77
2023/04/19 10:49:04;;;;;;;0.90;0.90;;;;;;;;;;4226032;28;20046;-78
2023/04/19 10:51:28;;;;;;;0.90;0.90;;;;;;;;;;4223570;28;20062;-80
2023/04/19 10:53:51;;;;;;;0.80;0.80;;;;;;;;;;4227655;28;20089;-82
2023/04/19 10:56:12;;;;;;;0.80;0.80;;;;;;;;;;4214800;28;20142;-83
2023/04/19 10:58:52;;;;;;;0.70;0.70;;;;;;;;;;4224450;28;20047;-79
2023/04/19 11:02:05;;;;;;;0.70;0.70;;;;;;;;;;4230747;28;20062;-84
2023/04/19 11:04:20;;;;;;;0.80;0.80;;;;;;;;;;4228958;28;20409;-74
2023/04/19 11:06:50;;;;;;;0.80;0.80;;;;;;;;;;4208664;28;20044;-80
2023/04/19 11:09:10;;;;;;;0.70;0.70;;;;;;;;;;4228994;28;20066;-81
2023/04/19 11:11:34;;;;;;;0.80;0.80;;;;;;;;;;4235903;28;20100;-80
2023/04/19 11:13:55;;;;;;;1.00;1.00;;;;;;;;;;4223580;28;20094;-76
2023/04/19 11:16:16;;;;;;;0.80;0.80;;;;;;;;;;4229031;28;20082;-76
2023/04/19 11:18:39;;;;;;;0.70;0.70;;;;;;;;;;4209957;28;20363;-72
2023/04/19 11:21:00;;;;;;;0.70;0.70;;;;;;;;;;4225022;28;20046;-77
2023/04/19 11:23:20;;;;;;;0.80;0.80;;;;;;;;;;4207092;28;20252;-76
2023/04/19 11:25:40;;;;;;;1.20;0.60;;;;;;;;;;4232391;28;20243;-77
2023/04/19 11:28:01;;;;;;;0.60;0.60;;;;;;;;;;4212129;28;20043;-75
2023/04/19 11:30:22;;;;;;;0.70;0.70;;;;;;;;;;4214195;28;20120;-78
2023/04/19 11:32:47;;;;;;;0.60;0.60;;;;;;;;;;4220690;28;20046;-75
2023/04/19 11:35:08;;;;;;;0.70;0.70;;;;;;;;;;4206024;28;20052;-79
2023/04/19 11:37:32;;;;;;;0.70;0.70;;;;;;;;;;4215998;28;20318;-79
2023/04/19 11:39:56;;;;;;;0.60;0.60;;;;;;;;;;4201485;28;20082;-77
2023/04/19 11:42:17;;;;;;;0.70;0.70;;;;;;;;;;4221975;28;20039;-77
2023/04/19 11:44:38;;;;;;;0.70;0.70;;;;;;;;;;4221986;28;20051;-79
2023/04/19 11:46:58;;;;;;;0.60;0.60;;;;;;;;;;4227129;28;20098;-77
2023/04/19 11:49:26;;;;;;;0.70;0.70;;;;;;;;;;4228541;28;20383;-79
2023/04/19 11:51:47;;;;;;;0.60;0.60;;;;;;;;;;4226351;28;20270;-78
2023/04/19 11:54:15;;;;;;;0.60;0.60;;;;;;;;;;4223096;28;20085;-78
2023/04/19 11:56:36;;;;;;;0.63;0.63;;;;;;;;;;4216523;28;20067;-78
2023/04/19 11:58:57;;;;;;;0.70;0.70;;;;;;;;;;4227419;28;20082;-77
2023/04/19 12:01:19;;;;;;;0.60;0.60;;;;;;;;;;4218050;28;20493;-78
2023/04/19 12:03:50;;;;;;;1.40;0.60;;;;;;;;;;4230105;28;20047;-78
2023/04/19 12:06:11;;;;;;;0.60;0.60;;;;;;;;;;4223509;28;20052;-76
2023/04/19 12:08:32;;;;;;;0.70;0.70;;;;;;;;;;4224386;28;20078;-76
2023/04/19 12:10:56;;;;;;;0.70;0.70;;;;;;;;;;4229473;28;20239;-74
2023/04/19 12:13:17;;;;;;;0.70;0.70;;;;;;;;;;4223868;28;20242;-75
2023/04/19 12:15:45;;;;;;;0.70;0.70;;;;;;;;;;4224580;28;20047;-75
2023/04/19 12:18:04;;;;;;;0.70;0.70;;;;;;;;;;4228413;28;20476;-74
2023/04/19 12:20:29;;;;;;;0.88;0.70;;;;;;;;;;4225851;28;20055;-77
2023/04/19 12:22:49;;;;;;;0.70;0.70;;;;;;;;;;4227854;28;20043;-75
2023/04/19 12:25:09;;;;;;;1.27;1.17;;;;;;;;;;4226007;28;20042;-73
2023/04/19 12:27:30;;;;;;;1.08;0.90;;;;;;;;;;4215367;28;20116;-73
2023/04/19 12:29:50;;;;;;;0.90;0.90;;;;;;;;;;4224662;28;20110;-74
2023/04/19 12:32:10;;;;;;;1.10;1.10;;;;;;;;;;4227529;28;20048;-74
2023/04/19 12:34:31;;;;;;;0.85;0.85;;;;;;;;;;4221415;28;20052;-73
2023/04/19 12:36:51;;;;;;;1.40;0.90;;;;;;;;;;4208945;28;20052;-63
2023/04/19 12:39:12;;;;;;;0.95;0.90;;;;;;;;;;4219819;28;20451;-63
2023/04/19 12:41:32;;;;;;;1.00;1.00;;;;;;;;;;4227265;28;20270;-63
2023/04/19 12:43:52;;;;;;;0.90;0.90;;;;;;;;;;4227909;28;20077;-63
2023/04/19 12:46:12;;;;;;;3.42;1.40;;;;;;;;;;4224394;28;20173;-63
2023/04/19 12:48:32;;;;;;;1.10;1.10;;;;;;;;;;4222809;28;20145;-61
2023/04/19 12:50:52;;;;;;;1.63;1.52;;;;;;;;;;4225255;28;20051;-60
2023/04/19 12:53:12;;;;;;;2.95;2.85;;;;;;;;;;4226617;28;20309;-60
2023/04/19 12:55:33;;;;;;;1.85;1.75;;;;;;;;;;4220277;28;20047;-60
2023/04/19 12:57:53;;;;;;;0.90;0.90;;;;;;;;;;4217889;28;20055;-60
2023/04/19 13:00:13;;;;;;;0.90;0.90;;;;;;;;;;4225117;28;20243;-60
2023/04/19 13:02:34;;;;;;;0.90;0.90;;;;;;;;;;4225714;28;20146;-60
2023/04/19 13:04:54;;;;;;;1.10;1.10;;;;;;;;;;4222189;28;20058;-60
2023/04/19 13:07:15;;;;;;;1.20;1.20;;;;;;;;;;4206297;28;20090;-61
2023/04/19 13:09:34;;;;;;;1.20;1.20;;;;;;;;;;4228123;28;20062;-61
2023/04/19 13:11:55;;;;;;;1.00;1.00;;;;;;;;;;4223582;28;20051;-61
2023/04/19 13:14:15;;;;;;;1.35;1.35;;;;;;;;;;4223099;28;20273;-61
2023/04/19 13:16:36;;;;;;;0.90;0.90;;;;;;;;;;4221982;28;20051;-61
2023/04/19 13:18:56;;;;;;;1.63;1.13;;;;;;;;;;4228068;28;20078;-61
2023/04/19 13:21:16;;;;;;;1.00;1.00;;;;;;;;;;4223571;28;20396;-62
2023/04/19 13:23:36;;;;;;;1.00;1.00;;;;;;;;;;4223422;28;20078;-62
2023/04/19 13:25:57;;;;;;;1.00;1.00;;;;;;;;;;4223114;28;20082;-61
2023/04/19 13:28:17;;;;;;;1.85;1.20;;;;;;;;;;4229883;28;20081;-61
2023/04/19 13:30:37;;;;;;;1.13;1.13;;;;;;;;;;4228136;28;20054;-61
2023/04/19 13:32:57;;;;;;;7.20;6.50;;;;;;;;;;4224462;28;20362;-60
2023/04/19 13:35:17;;;;;;;5.50;5.10;;;;;;;;;;4225628;28;20136;-60
2023/04/19 13:37:39;;;;;;;1.77;1.70;;;;;;;;;;4228094;28;20081;-61
2023/04/19 13:39:59;;;;;;;1.50;1.50;;;;;;;;;;4227089;28;20426;-60
2023/04/19 13:42:38;;;;;;;1.00;1.00;;;;;;;;;;4228702;28;20042;-60
2023/04/19 13:44:58;;;;;;;1.00;1.00;;;;;;;;;;4222210;28;20243;-61
2023/04/19 13:47:18;;;;;;;1.02;1.02;;;;;;;;;;4223914;28;20274;-61
2023/04/19 13:49:38;;;;;;;1.40;1.00;;;;;;;;;;4227220;28;20063;-61
2023/04/19 13:51:59;;;;;;;1.20;1.20;;;;;;;;;;4226695;28;20074;-61
2023/04/19 13:54:19;;;;;;;0.95;0.95;;;;;;;;;;4223187;28;20401;-61
2023/04/19 13:56:40;;;;;;;1.00;1.00;;;;;;;;;;4224607;28;20067;-61
2023/04/19 13:59:01;;;;;;;1.10;1.10;;;;;;;;;;4229758;28;20051;-62
2023/04/19 14:01:21;;;;;;;4.38;1.10;;;;;;;;;;4221331;28;20079;-63
2023/04/19 14:03:42;;;;;;;1.10;1.10;;;;;;;;;;4221987;28;20077;-62
2023/04/19 14:06:02;;;;;;;1.50;1.40;;;;;;;;;;4223598;28;20089;-63
2023/04/19 14:08:22;;;;;;;1.25;1.23;;;;;;;;;;4229288;28;20050;-62
2023/04/19 14:10:43;;;;;;;1.52;1.17;;;;;;;;;;4219654;28;20050;-62